Time;durP1;ratioP1;P1;durP2;ratioP2;P2;SDS_P1;SDS_P2;PMS_P1;PMS_P2;Temp;Humidity;BMP_temperature;BMP_pressure;BME280_temperature;BME280_humidity;BME280_pressure;Samples;Min_cycle;Max_cycle;Signal;HPM_P1;HPM_P2
2021/12/19 00:09:22;;;;;;;39.00;23.10;;;;;;;5.01;73.48;99590.53;212451;1323;138661;-63
2021/12/19 00:14:26;;;;;;;38.90;22.30;;;;;;;5.03;73.21;99581.70;212602;1322;139614;-59
2021/12/19 00:19:29;;;;;;;31.90;18.20;;;;;;;5.05;73.27;99568.25;213017;1327;138782;-61
2021/12/19 00:24:32;;;;;;;31.50;17.70;;;;;;;5.16;73.48;99571.44;212693;1325;139531;-59
2021/12/19 00:29:35;;;;;;;22.80;14.10;;;;;;;5.25;73.43;99565.67;212434;1325;139133;-62
2021/12/19 00:34:38;;;;;;;17.30;11.00;;;;;;;5.33;73.25;99564.90;212271;1329;138806;-60
2021/12/19 00:39:41;;;;;;;9.70;6.60;;;;;;;5.36;73.11;99562.17;213983;1327;139126;-60
2021/12/19 00:44:45;;;;;;;8.70;5.30;;;;;;;5.39;73.48;99566.99;212092;1325;139185;-60
2021/12/19 00:49:48;;;;;;;6.30;5.00;;;;;;;5.48;73.27;99561.95;211977;1329;138544;-59
2021/12/19 00:55:09;;;;;;;7.20;5.10;;;;;;;5.56;73.27;99544.27;212860;1325;138343;-59
2021/12/19 01:00:16;;;;;;;6.10;4.10;;;;;;;5.63;73.29;99545.95;212843;1328;138601;-62
2021/12/19 01:05:19;;;;;;;7.80;5.30;;;;;;;5.73;73.15;99537.90;212354;1328;138401;-60
2021/12/19 01:10:23;;;;;;;7.00;5.20;;;;;;;5.79;73.10;99525.69;212434;1329;139117;-62
2021/12/19 01:15:26;;;;;;;6.30;4.50;;;;;;;5.81;73.02;99517.00;212293;1320;138528;-60
2021/12/19 01:20:31;;;;;;;14.40;8.20;;;;;;;5.83;72.44;99498.11;212129;1330;140139;-59
2021/12/19 01:25:34;;;;;;;15.90;10.30;;;;;;;5.77;72.71;99477.17;212214;1325;138887;-60
2021/12/19 01:30:38;;;;;;;22.40;12.80;;;;;;;5.73;72.31;99471.52;212416;1328;138816;-60
2021/12/19 01:35:41;;;;;;;18.70;10.80;;;;;;;5.68;72.13;99461.48;212054;1329;138380;-59
2021/12/19 01:40:44;;;;;;;18.40;10.70;;;;;;;5.67;72.27;99446.38;212701;1329;143268;-63
2021/12/19 01:45:47;;;;;;;17.90;10.00;;;;;;;5.66;72.27;99430.20;212178;1329;139195;-61
2021/12/19 01:50:51;;;;;;;15.00;9.20;;;;;;;5.62;72.32;99417.49;212091;1332;138517;-59
2021/12/19 01:55:54;;;;;;;11.70;8.00;;;;;;;5.65;72.51;99410.53;212673;1325;139406;-61
2021/12/19 02:00:58;;;;;;;14.70;8.20;;;;;;;5.67;72.45;99398.68;212712;1326;138778;-60
2021/12/19 02:06:03;;;;;;;13.90;8.80;;;;;;;5.68;72.46;99402.34;213348;1328;138538;-60
2021/12/19 02:11:07;;;;;;;12.30;9.20;;;;;;;5.65;72.40;99399.64;212415;1325;138722;-59
2021/12/19 02:16:10;;;;;;;15.40;10.70;;;;;;;5.66;72.38;99400.48;212991;1323;138531;-58
2021/12/19 02:21:13;;;;;;;16.00;11.50;;;;;;;5.63;72.50;99397.77;212775;1327;232104;-59
2021/12/19 02:26:17;;;;;;;13.00;10.20;;;;;;;5.64;72.68;99398.63;212319;1328;139196;-58
2021/12/19 02:31:21;;;;;;;13.90;10.10;;;;;;;5.67;72.36;99385.48;212039;1328;139478;-60
2021/12/19 02:36:40;;;;;;;11.80;9.00;;;;;;;5.67;72.53;99357.14;212135;1325;139737;-61
2021/12/19 02:52:34;;;;;;;10.60;7.40;;;;;;;5.49;72.62;99300.44;212205;1328;138897;-63
2021/12/19 02:57:39;;;;;;;11.10;6.60;;;;;;;5.39;72.96;99296.04;211818;1332;138981;-61
2021/12/19 03:02:42;;;;;;;13.10;8.00;;;;;;;5.34;72.73;99306.80;212232;1329;138814;-60
2021/12/19 03:07:46;;;;;;;12.80;8.60;;;;;;;5.36;73.08;99307.77;212059;1329;139309;-61
2021/12/19 03:18:09;;;;;;;12.30;5.50;;;;;;;5.30;73.36;99278.45;212331;1328;139462;-61
2021/12/19 03:23:14;;;;;;;14.50;9.60;;;;;;;5.28;73.37;99266.21;212427;1322;139294;-61
2021/12/19 03:28:17;;;;;;;14.20;9.40;;;;;;;5.25;73.36;99247.67;212463;1323;138627;-63
2021/12/19 03:33:20;;;;;;;12.80;8.00;;;;;;;5.22;73.50;99234.42;212389;1328;139160;-60
2021/12/19 03:38:25;;;;;;;12.00;7.80;;;;;;;5.21;73.42;99210.36;212970;1322;138956;-61
2021/12/19 03:43:28;;;;;;;14.10;8.70;;;;;;;5.21;73.62;99207.51;212224;1322;143011;-60
2021/12/19 03:48:31;;;;;;;12.60;8.80;;;;;;;5.20;73.73;99196.69;212407;1328;138805;-62
2021/12/19 03:53:34;;;;;;;13.70;8.20;;;;;;;5.23;73.80;99198.67;212580;1328;139402;-62
2021/12/19 03:58:37;;;;;;;12.40;8.60;;;;;;;5.21;73.87;99185.52;212405;1328;139867;-60
2021/12/19 04:03:41;;;;;;;13.50;8.40;;;;;;;5.18;74.02;99180.93;212420;1328;139783;-60
2021/12/19 04:08:46;;;;;;;11.90;7.90;;;;;;;5.23;74.06;99170.34;211942;1328;139299;-61
2021/12/19 04:13:49;;;;;;;12.60;8.30;;;;;;;5.27;73.75;99157.55;211994;1325;139707;-63
2021/12/19 04:18:52;;;;;;;11.30;8.10;;;;;;;5.26;74.10;99154.94;211906;1328;138612;-61
2021/12/19 04:23:55;;;;;;;11.60;7.40;;;;;;;5.28;73.99;99157.30;211946;1331;138997;-61
2021/12/19 04:28:58;;;;;;;13.20;8.90;;;;;;;5.28;74.12;99134.30;212221;1329;139802;-62
2021/12/19 04:34:01;;;;;;;13.10;8.50;;;;;;;5.26;74.30;99119.73;212512;1325;138743;-60
2021/12/19 04:39:28;;;;;;;11.90;6.80;;;;;;;5.29;74.04;99102.05;212820;1324;138584;-61
2021/12/19 05:00:09;;;;;;;10.80;7.50;;;;;;;5.39;74.27;99080.70;212363;1327;219287;-59
2021/12/19 05:15:48;;;;;;;12.10;7.90;;;;;;;5.37;74.42;99096.99;212044;1327;138787;-60
2021/12/19 05:20:55;;;;;;;9.40;6.30;;;;;;;5.35;74.21;99093.35;212455;1326;138722;-60
2021/12/19 05:25:59;;;;;;;11.30;7.80;;;;;;;5.35;74.46;99083.86;212399;1322;138777;-58
2021/12/19 05:31:03;;;;;;;12.70;8.70;;;;;;;5.31;74.42;99064.84;212691;1327;138944;-61
2021/12/19 05:46:33;;;;;;;13.10;8.60;;;;;;;5.29;74.55;99042.77;212513;1325;138663;-61
2021/12/19 05:51:38;;;;;;;12.80;8.40;;;;;;;5.29;74.58;99045.40;212113;1329;138501;-63
2021/12/19 05:56:42;;;;;;;11.70;7.80;;;;;;;5.34;74.71;99047.30;212896;1322;139272;-61
2021/12/19 06:01:46;;;;;;;11.80;7.60;;;;;;;5.38;74.59;99050.31;211940;1329;139819;-59
2021/12/19 06:06:51;;;;;;;13.20;8.80;;;;;;;5.40;74.69;99057.27;212088;1322;138252;-61
2021/12/19 06:11:54;;;;;;;14.20;8.70;;;;;;;5.40;74.60;99053.58;212090;1329;139498;-62
2021/12/19 06:16:59;;;;;;;12.40;8.90;;;;;;;5.42;74.86;99058.74;212004;1329;138733;-61
2021/12/19 06:22:05;;;;;;;14.20;9.00;;;;;;;5.42;74.63;99048.39;212466;1325;139395;-62
2021/12/19 06:27:08;;;;;;;11.40;8.30;;;;;;;5.38;74.46;99027.62;212510;1322;138938;-60
2021/12/19 06:32:11;;;;;;;10.80;7.70;;;;;;;5.38;74.52;99014.23;212364;1325;139311;-62
2021/12/19 06:37:14;;;;;;;13.50;8.30;;;;;;;5.42;74.72;99023.74;212348;1322;139402;-61
2021/12/19 06:42:17;;;;;;;10.70;7.90;;;;;;;5.48;74.67;99012.09;212273;1321;138938;-62
2021/12/19 06:47:20;;;;;;;13.50;8.50;;;;;;;5.54;74.58;99000.73;212242;1322;139210;-63
2021/12/19 06:52:23;;;;;;;10.90;7.90;;;;;;;5.61;74.34;98995.00;212203;1330;138890;-63
2021/12/19 06:57:26;;;;;;;13.20;9.40;;;;;;;5.69;74.82;98984.95;212005;1325;139156;-62
2021/12/19 07:02:29;;;;;;;12.20;8.60;;;;;;;5.84;74.48;98985.69;212194;1327;139028;-61
2021/12/19 07:07:33;;;;;;;13.50;8.80;;;;;;;5.89;74.04;98993.58;212125;1325;139091;-64
2021/12/19 07:12:36;;;;;;;14.60;8.80;;;;;;;5.86;73.78;98979.64;212090;1322;140810;-60
2021/12/19 07:17:39;;;;;;;13.40;8.90;;;;;;;5.81;73.67;98965.80;211976;1325;138776;-60
2021/12/19 07:22:43;;;;;;;11.60;7.90;;;;;;;5.80;73.63;98961.95;212179;1322;138688;-60
2021/12/19 07:27:46;;;;;;;10.70;7.90;;;;;;;5.85;73.64;98966.84;211903;1331;140757;-61
2021/12/19 07:32:49;;;;;;;17.10;9.10;;;;;;;5.87;73.54;98951.64;212554;1323;139614;-60
2021/12/19 07:37:56;;;;;;;13.70;9.60;;;;;;;5.89;73.94;98961.54;211911;1332;138756;-61
2021/12/19 07:43:01;;;;;;;14.10;8.20;;;;;;;5.94;73.72;98966.65;211908;1331;140189;-61
2021/12/19 07:48:04;;;;;;;10.20;7.10;;;;;;;5.96;73.60;98976.80;212260;1325;139204;-62
2021/12/19 07:53:08;;;;;;;11.10;7.80;;;;;;;6.02;73.38;98979.34;212777;1324;139093;-61
2021/12/19 07:58:11;;;;;;;10.50;7.90;;;;;;;6.05;73.51;98985.39;213698;1322;139146;-59
2021/12/19 08:03:14;;;;;;;12.30;7.80;;;;;;;6.06;73.47;98984.95;212376;1326;139176;-62
2021/12/19 08:08:25;;;;;;;12.40;8.40;;;;;;;6.04;73.36;98983.48;212394;1325;139018;-60
2021/12/19 08:13:28;;;;;;;11.10;7.80;;;;;;;6.03;73.30;98992.17;212285;1325;139942;-59
2021/12/19 08:18:31;;;;;;;10.70;7.80;;;;;;;6.01;73.38;98989.41;212135;1330;138824;-62
2021/12/19 08:23:35;;;;;;;67.30;48.00;;;;;;;5.98;73.47;98998.20;212530;1325;138367;-61
2021/12/19 08:28:38;;;;;;;13.70;8.90;;;;;;;6.04;74.18;98999.16;212724;1322;139333;-60
2021/12/19 08:33:41;;;;;;;15.80;9.00;;;;;;;6.08;73.80;98997.71;212122;1322;139239;-60
2021/12/19 08:38:46;;;;;;;11.60;8.30;;;;;;;6.05;73.77;99003.88;212000;1325;138812;-59
2021/12/19 08:43:49;;;;;;;14.40;9.00;;;;;;;6.04;73.94;99004.95;212932;1325;138500;-59
2021/12/19 08:48:52;;;;;;;328.30;194.40;;;;;;;6.07;74.13;98998.81;212042;1328;138760;-60
2021/12/19 08:53:55;;;;;;;18.70;10.70;;;;;;;6.21;74.21;98986.77;212667;1322;140758;-59
2021/12/19 08:59:00;;;;;;;16.20;8.10;;;;;;;6.27;73.85;98982.11;212553;1326;140021;-60
2021/12/19 09:04:03;;;;;;;7.90;5.00;;;;;;;6.28;73.82;98977.82;212474;1329;138879;-60
2021/12/19 09:09:08;;;;;;;10.00;5.40;;;;;;;6.27;73.91;98970.08;212344;1323;139567;-60
2021/12/19 09:14:11;;;;;;;8.20;5.30;;;;;;;6.29;73.78;98957.70;212347;1319;139966;-58
2021/12/19 09:19:15;;;;;;;11.60;4.80;;;;;;;6.30;73.78;98951.45;212748;1322;138941;-61
2021/12/19 09:24:19;;;;;;;8.80;4.90;;;;;;;6.31;73.89;98947.72;212708;1325;139567;-61
2021/12/19 09:29:26;;;;;;;10.30;5.40;;;;;;;6.31;73.67;98945.42;212063;1325;140671;-60
2021/12/19 09:34:29;;;;;;;6.50;4.10;;;;;;;6.31;73.49;98945.08;212174;1324;139552;-59
2021/12/19 09:39:33;;;;;;;8.90;4.70;;;;;;;6.34;73.98;98946.87;212044;1324;138536;-61
2021/12/19 09:44:39;;;;;;;241.50;162.00;;;;;;;6.37;73.71;98936.31;212570;1324;139195;-59
2021/12/19 09:49:42;;;;;;;18.20;10.10;;;;;;;6.50;74.12;98926.91;212072;1325;139702;-59
2021/12/19 09:54:45;;;;;;;9.10;5.00;;;;;;;6.58;73.96;98914.90;211898;1325;139157;-58
2021/12/19 09:59:48;;;;;;;8.20;4.30;;;;;;;6.55;73.69;98909.42;212147;1328;138988;-60
2021/12/19 10:04:51;;;;;;;8.60;4.40;;;;;;;6.54;73.49;98903.31;212107;1322;139364;-59
2021/12/19 10:10:04;;;;;;;7.20;4.00;;;;;;;6.53;73.41;98899.98;211921;1324;140165;-59
2021/12/19 10:15:09;;;;;;;7.80;4.50;;;;;;;6.51;73.54;98888.11;212354;1328;208567;-58
2021/12/19 10:20:16;;;;;;;7.70;4.60;;;;;;;6.48;73.44;98876.45;212492;1322;141104;-59
2021/12/19 10:25:27;;;;;;;8.80;4.30;;;;;;;6.51;73.40;98864.13;212933;1325;139761;-59
2021/12/19 10:30:47;;;;;;;7.20;4.80;;;;;;;6.53;73.23;98851.38;212233;1325;139535;-60
2021/12/19 10:35:51;;;;;;;9.60;5.10;;;;;;;6.53;73.52;98839.36;211763;1331;138446;-60
2021/12/19 10:41:01;;;;;;;7.60;3.80;;;;;;;6.56;73.45;98837.42;212007;1329;138916;-63
2021/12/19 10:46:07;;;;;;;9.90;4.90;;;;;;;6.57;73.39;98844.45;212328;1327;140242;-60
2021/12/19 10:51:19;;;;;;;9.30;4.80;;;;;;;6.55;73.26;98829.73;212767;1324;138768;-60
2021/12/19 10:56:31;;;;;;;6.80;3.80;;;;;;;6.56;73.38;98823.55;212559;1322;138814;-60
2021/12/19 11:01:35;;;;;;;6.10;4.20;;;;;;;6.59;73.25;98812.11;212289;1327;139512;-59
2021/12/19 11:06:47;;;;;;;7.30;4.30;;;;;;;6.60;72.99;98797.23;212051;1325;139306;-57
2021/12/19 11:11:50;;;;;;;9.50;4.40;;;;;;;6.63;73.05;98788.81;212044;1328;138645;-59
2021/12/19 11:17:03;;;;;;;5.30;3.50;;;;;;;6.65;73.14;98785.53;212281;1322;138876;-58
2021/12/19 11:22:06;;;;;;;6.30;3.30;;;;;;;6.70;73.03;98779.83;212486;1328;139123;-59
2021/12/19 11:27:09;;;;;;;6.50;3.60;;;;;;;6.74;72.90;98772.20;212345;1322;138744;-59
2021/12/19 11:32:19;;;;;;;8.40;3.90;;;;;;;6.75;72.67;98762.83;212254;1328;142940;-58
2021/12/19 11:37:39;;;;;;;6.20;2.60;;;;;;;6.75;72.67;98756.09;212290;1322;138461;-59
2021/12/19 11:42:42;;;;;;;4.20;1.90;;;;;;;6.75;72.58;98747.83;212692;1327;139996;-58
2021/12/19 11:47:54;;;;;;;3.70;2.10;;;;;;;6.75;72.07;98734.63;212390;1322;140085;-59
2021/12/19 11:53:07;;;;;;;5.20;3.10;;;;;;;6.77;72.09;98730.11;212157;1326;138248;-59
2021/12/19 11:58:27;;;;;;;5.90;2.90;;;;;;;6.77;72.07;98723.57;212343;1323;140839;-59
2021/12/19 12:03:39;;;;;;;6.70;3.20;;;;;;;6.78;72.17;98721.92;212135;1328;138179;-60
2021/12/19 12:09:09;;;;;;;5.00;2.30;;;;;;;6.85;71.92;98718.94;212032;1325;139156;-58
2021/12/19 12:14:23;;;;;;;5.20;2.90;;;;;;;6.89;71.98;98714.84;212191;1322;229249;-59
2021/12/19 12:19:38;;;;;;;7.00;3.10;;;;;;;6.88;71.64;98705.19;212140;1320;138094;-61
2021/12/19 12:25:02;;;;;;;5.60;3.00;;;;;;;6.86;71.64;98702.81;212289;1328;138909;-57
2021/12/19 12:30:11;;;;;;;6.10;3.00;;;;;;;6.85;71.55;98699.15;212640;1327;139427;-59
2021/12/19 12:35:15;;;;;;;4.40;2.60;;;;;;;6.85;71.65;98696.19;212002;1328;138621;-57
2021/12/19 12:40:30;;;;;;;4.60;2.50;;;;;;;6.81;71.58;98683.52;212172;1324;138585;-56
2021/12/19 12:45:48;;;;;;;4.60;2.40;;;;;;;6.79;71.62;98686.08;212407;1325;138740;-58
2021/12/19 12:50:51;;;;;;;4.10;2.80;;;;;;;6.80;71.32;98664.86;212307;1328;138528;-60
2021/12/19 12:56:33;;;;;;;6.20;3.40;;;;;;;6.84;71.18;98659.54;211900;1323;138775;-58
2021/12/19 13:01:38;;;;;;;4.70;2.70;;;;;;;6.88;71.06;98653.17;212827;1325;205616;-60
2021/12/19 13:06:50;;;;;;;5.20;2.10;;;;;;;6.82;70.92;98641.48;212110;1325;138623;-60
2021/12/19 13:12:01;;;;;;;98.90;54.90;;;;;;;6.75;70.80;98635.34;212847;1326;138663;-58
2021/12/19 13:17:12;;;;;;;8.30;3.70;;;;;;;6.83;71.19;98639.69;212711;1322;138884;-60
2021/12/19 13:22:24;;;;;;;6.30;2.70;;;;;;;6.93;70.76;98636.15;212686;1323;139548;-60
2021/12/19 13:27:34;;;;;;;5.00;2.70;;;;;;;6.86;70.60;98637.77;212383;1325;138530;-63
2021/12/19 13:32:39;;;;;;;6.30;3.30;;;;;;;6.82;70.50;98630.90;212381;1322;138533;-58
2021/12/19 13:38:07;;;;;;;4.20;2.90;;;;;;;6.74;70.78;98620.42;212038;1329;138146;-59
2021/12/19 13:43:13;;;;;;;72.90;39.70;;;;;;;6.67;70.60;98597.35;212611;1322;138874;-60
2021/12/19 13:48:19;;;;;;;39.10;24.20;;;;;;;6.68;70.71;98586.55;212313;1321;139996;-60
2021/12/19 13:53:24;;;;;;;5.40;3.40;;;;;;;6.72;70.96;98594.27;212121;1328;139777;-59
2021/12/19 13:58:38;;;;;;;5.00;2.90;;;;;;;6.72;70.65;98596.39;212557;1323;140641;-61
2021/12/19 14:03:54;;;;;;;143.50;81.60;;;;;;;6.72;70.64;98584.38;212223;1322;138544;-59
2021/12/19 14:09:01;;;;;;;8.70;5.00;;;;;;;6.79;70.93;98572.21;211887;1331;140018;-60
2021/12/19 14:14:10;;;;;;;5.00;2.80;;;;;;;6.78;70.23;98569.61;212979;1320;140348;-60
2021/12/19 14:19:15;;;;;;;6.60;3.10;;;;;;;6.76;70.25;98561.46;212124;1323;139131;-60
2021/12/19 14:24:38;;;;;;;6.80;3.10;;;;;;;6.74;70.33;98558.04;212177;1325;138640;-60
2021/12/19 14:29:50;;;;;;;5.40;3.10;;;;;;;6.70;70.30;98559.09;212165;1322;138568;-59
2021/12/19 14:34:57;;;;;;;3.80;2.50;;;;;;;6.72;70.18;98560.75;211941;1331;139107;-61
2021/12/19 14:40:20;;;;;;;4.30;2.50;;;;;;;6.69;70.18;98550.19;212407;1325;138152;-60
2021/12/19 14:45:30;;;;;;;4.20;2.60;;;;;;;6.60;70.18;98546.44;212589;1325;138680;-59
2021/12/19 14:50:34;;;;;;;7.20;4.10;;;;;;;6.54;69.95;98540.79;212254;1322;139336;-59
2021/12/19 14:55:48;;;;;;;6.30;3.20;;;;;;;6.53;70.17;98543.30;212627;1322;138607;-58
2021/12/19 15:00:57;;;;;;;5.50;3.20;;;;;;;6.47;70.03;98541.83;212085;1325;139265;-58
2021/12/19 15:06:03;;;;;;;4.80;3.00;;;;;;;6.39;70.05;98528.33;211926;1332;138829;-59
2021/12/19 15:11:07;;;;;;;51.10;31.50;;;;;;;6.38;70.39;98539.17;212430;1328;140270;-58
2021/12/19 15:16:11;;;;;;;6.90;4.20;;;;;;;6.45;70.49;98538.63;211902;1327;138802;-60
2021/12/19 15:21:15;;;;;;;5.20;3.10;;;;;;;6.38;70.31;98535.09;212229;1326;138433;-58
2021/12/19 15:26:18;;;;;;;5.00;3.40;;;;;;;6.32;70.17;98534.71;212113;1328;138924;-58
2021/12/19 15:31:23;;;;;;;6.10;3.30;;;;;;;6.25;70.48;98517.09;212134;1327;139280;-60
2021/12/19 15:36:27;;;;;;;6.10;3.70;;;;;;;6.22;70.55;98500.71;211929;1325;139288;-59
2021/12/19 15:41:29;;;;;;;6.10;3.70;;;;;;;6.22;70.30;98499.16;212384;1325;139303;-59
2021/12/19 15:46:34;;;;;;;6.40;4.00;;;;;;;6.22;70.77;98511.33;212148;1325;138700;-58
2021/12/19 15:51:37;;;;;;;4.60;3.30;;;;;;;6.20;70.45;98513.52;212170;1325;139746;-59
2021/12/19 15:56:41;;;;;;;5.50;3.10;;;;;;;6.20;70.63;98509.81;212297;1328;138585;-60
2021/12/19 16:01:45;;;;;;;7.00;3.50;;;;;;;6.16;70.49;98509.30;212013;1325;138721;-60
2021/12/19 16:06:48;;;;;;;5.50;3.60;;;;;;;6.15;70.64;98503.20;211999;1328;139351;-60
2021/12/19 16:11:51;;;;;;;7.80;4.00;;;;;;;6.15;70.95;98492.66;212076;1328;140108;-59
2021/12/19 16:16:54;;;;;;;8.80;3.90;;;;;;;6.14;70.84;98489.36;212456;1322;138708;-56
2021/12/19 16:21:57;;;;;;;7.50;3.90;;;;;;;6.12;70.67;98483.11;212266;1330;138584;-57
2021/12/19 16:27:02;;;;;;;6.20;4.10;;;;;;;6.11;70.88;98475.06;212775;1322;139742;-61
2021/12/19 16:32:06;;;;;;;16.10;9.30;;;;;;;6.10;71.05;98473.16;212480;1328;139313;-58
2021/12/19 16:37:09;;;;;;;10.40;5.30;;;;;;;6.13;71.03;98466.49;212736;1319;138423;-57
2021/12/19 16:47:26;;;;;;;6.80;4.10;;;;;;;5.99;70.72;98457.21;212022;1331;139352;-59
2021/12/19 16:52:30;;;;;;;4.80;2.90;;;;;;;5.90;70.89;98435.83;212763;1325;138503;-59
2021/12/19 16:57:33;;;;;;;5.40;3.60;;;;;;;5.79;71.16;98422.66;212089;1329;138483;-57
2021/12/19 17:02:36;;;;;;;5.70;3.50;;;;;;;5.74;71.30;98422.25;212454;1323;138756;-58
2021/12/19 17:07:39;;;;;;;6.20;4.30;;;;;;;5.75;71.55;98419.52;212143;1327;139133;-59
2021/12/19 17:12:50;;;;;;;7.10;3.90;;;;;;;5.79;71.64;98424.80;213028;1328;138894;-60
2021/12/19 17:17:54;;;;;;;7.40;4.10;;;;;;;5.81;72.01;98418.53;212140;1328;138662;-60
2021/12/19 17:22:58;;;;;;;7.40;4.30;;;;;;;5.78;71.88;98413.39;211976;1323;138529;-57
2021/12/19 17:28:01;;;;;;;7.30;4.00;;;;;;;5.70;72.03;98407.98;212319;1325;140400;-59
2021/12/19 17:33:05;;;;;;;6.60;4.10;;;;;;;5.68;72.13;98389.59;211946;1329;139088;-59
2021/12/19 17:38:09;;;;;;;13.10;7.40;;;;;;;5.71;72.47;98380.69;212612;1327;138619;-59
2021/12/19 17:43:12;;;;;;;8.60;5.00;;;;;;;5.91;72.70;98368.87;213020;1320;139504;-61
2021/12/19 17:48:15;;;;;;;6.90;4.10;;;;;;;5.87;72.41;98391.08;212681;1319;138597;-59
2021/12/19 17:53:19;;;;;;;7.40;4.00;;;;;;;5.84;72.31;98394.23;212347;1330;139847;-59
2021/12/19 17:58:23;;;;;;;6.70;4.00;;;;;;;5.81;72.37;98396.84;212057;1327;138736;-60
2021/12/19 18:03:29;;;;;;;7.50;4.10;;;;;;;5.77;72.36;98388.26;212709;1324;138444;-60
2021/12/19 18:08:33;;;;;;;4.20;3.10;;;;;;;5.72;72.34;98385.71;212109;1323;139851;-60
2021/12/19 18:13:36;;;;;;;5.80;3.30;;;;;;;5.72;72.53;98375.53;212540;1328;138687;-60
2021/12/19 18:18:39;;;;;;;6.90;3.70;;;;;;;5.73;72.32;98379.88;213003;1324;138610;-59
2021/12/19 18:23:42;;;;;;;5.50;3.70;;;;;;;5.71;72.49;98378.02;212850;1327;138974;-60
2021/12/19 18:28:46;;;;;;;7.40;4.20;;;;;;;5.72;72.32;98374.64;212234;1329;138905;-60
2021/12/19 18:33:51;;;;;;;7.50;4.00;;;;;;;5.70;72.39;98373.17;212864;1326;139775;-59
2021/12/19 18:38:54;;;;;;;7.90;4.60;;;;;;;5.66;72.71;98372.13;212333;1326;139556;-60
2021/12/19 18:44:07;;;;;;;16.50;9.90;;;;;;;5.62;72.67;98373.23;212111;1329;138911;-58
2021/12/19 18:54:51;;;;;;;5.30;1.90;;;;;;;5.59;72.94;98462.73;212082;1323;139070;-59
2021/12/19 18:59:50;;;;;;;1.50;0.80;;;;;;;5.54;71.89;98472.88;212409;1323;139627;-59
2021/12/19 19:05:00;;;;;;;1.10;0.70;;;;;;;5.22;70.91;98479.56;212590;1326;138795;-59
2021/12/19 19:10:08;;;;;;;1.60;0.60;;;;;;;4.92;70.74;98469.08;212624;1327;139020;-60
2021/12/19 19:15:11;;;;;;;2.20;1.30;;;;;;;4.75;70.72;98470.61;212633;1328;138942;-58
2021/12/19 19:20:15;;;;;;;12.40;8.40;;;;;;;4.69;70.98;98463.84;212246;1326;140288;-58
2021/12/19 19:25:18;;;;;;;109.10;57.70;;;;;;;4.74;71.10;98462.55;211933;1325;138964;-59
2021/12/19 19:30:23;;;;;;;3.90;1.90;;;;;;;4.81;71.43;98467.17;212042;1329;139409;-58
2021/12/19 19:35:28;;;;;;;2.70;1.40;;;;;;;4.80;70.94;98473.17;211961;1329;139322;-59
2021/12/19 19:51:02;;;;;;;3.00;1.90;;;;;;;4.81;70.93;98497.39;212374;1327;138650;-59
2021/12/19 19:56:06;;;;;;;3.70;2.20;;;;;;;4.80;71.01;98504.80;211946;1325;140446;-59
2021/12/19 20:01:09;;;;;;;5.10;2.20;;;;;;;4.80;70.92;98506.77;212200;1328;139159;-56
2021/12/19 20:06:13;;;;;;;3.30;2.00;;;;;;;4.82;70.71;98515.27;212626;1326;139433;-59
2021/12/19 20:11:16;;;;;;;5.20;2.00;;;;;;;4.82;70.65;98524.40;212461;1323;140724;-59
2021/12/19 20:16:20;;;;;;;6.90;2.30;;;;;;;4.82;70.54;98531.94;212299;1322;138557;-58
2021/12/19 20:21:23;;;;;;;6.70;1.90;;;;;;;4.85;70.37;98533.05;212516;1328;140180;-55
2021/12/19 20:26:26;;;;;;;4.80;2.30;;;;;;;4.91;70.42;98538.58;212005;1323;138947;-59
2021/12/19 20:31:30;;;;;;;6.20;2.40;;;;;;;4.97;70.60;98539.86;212038;1323;139095;-58
2021/12/19 20:36:35;;;;;;;6.50;2.50;;;;;;;4.99;70.22;98536.59;212216;1331;138087;-58
2021/12/19 20:41:39;;;;;;;4.50;2.00;;;;;;;4.95;69.92;98552.61;211957;1325;139179;-59
2021/12/19 20:46:46;;;;;;;4.70;2.50;;;;;;;4.87;69.74;98563.70;211977;1329;139310;-58
2021/12/19 20:51:50;;;;;;;5.60;2.50;;;;;;;4.83;69.48;98568.28;211852;1321;139010;-58
2021/12/19 20:56:55;;;;;;;5.90;2.20;;;;;;;4.78;69.29;98572.23;212293;1327;137934;-59
2021/12/19 21:01:58;;;;;;;6.00;2.40;;;;;;;4.74;69.42;98571.69;211676;1323;182998;-58
2021/12/19 21:07:01;;;;;;;6.10;2.30;;;;;;;4.67;68.81;98577.96;212692;1325;138786;-58
2021/12/19 21:12:14;;;;;;;4.10;1.90;;;;;;;4.67;68.96;98588.19;212727;1320;139167;-58
2021/12/19 21:22:41;;;;;;;4.40;2.10;;;;;;;4.60;68.83;98605.17;211857;1329;138397;-58
2021/12/19 21:27:44;;;;;;;6.60;2.30;;;;;;;4.59;68.69;98611.76;212198;1330;138217;-58
2021/12/19 21:32:47;;;;;;;6.00;2.70;;;;;;;4.58;68.42;98615.13;212560;1322;138485;-56
2021/12/19 21:43:16;;;;;;;6.70;1.90;;;;;;;4.50;68.14;98628.64;212608;1323;138424;-57
2021/12/19 21:48:19;;;;;;;5.30;2.60;;;;;;;4.44;68.02;98642.39;212635;1322;138954;-57
2021/12/19 21:53:22;;;;;;;120.80;65.00;;;;;;;4.32;67.80;98636.80;212573;1325;138622;-60
2021/12/19 21:58:25;;;;;;;7.30;3.10;;;;;;;4.33;68.13;98640.11;212063;1328;138648;-60
2021/12/19 22:03:28;;;;;;;6.00;2.70;;;;;;;4.28;67.53;98643.29;212226;1329;139025;-59
2021/12/19 22:08:32;;;;;;;9.20;2.60;;;;;;;4.19;67.54;98640.88;212105;1322;138115;-59
2021/12/19 22:18:59;;;;;;;4.90;2.50;;;;;;;4.01;67.46;98644.95;212049;1328;138253;-58
2021/12/19 22:24:04;;;;;;;7.00;3.00;;;;;;;3.91;67.51;98645.38;213532;1328;138517;-59
2021/12/19 22:29:07;;;;;;;6.40;3.00;;;;;;;3.80;67.38;98653.73;212312;1328;138027;-60
2021/12/19 22:34:10;;;;;;;7.50;2.80;;;;;;;3.76;67.59;98648.98;212425;1322;139370;-60
2021/12/19 22:39:13;;;;;;;8.10;2.70;;;;;;;3.79;67.63;98654.48;212104;1328;139274;-60
2021/12/19 22:44:17;;;;;;;8.30;3.20;;;;;;;3.84;67.63;98655.84;212139;1329;138734;-59
2021/12/19 22:49:20;;;;;;;6.50;2.90;;;;;;;3.82;67.63;98663.85;212340;1322;138301;-56
2021/12/19 22:54:23;;;;;;;30.60;17.60;;;;;;;3.77;67.68;98662.95;212612;1322;139242;-56
2021/12/19 22:59:26;;;;;;;9.30;4.00;;;;;;;3.81;67.74;98665.47;212593;1323;138741;-58
2021/12/19 23:04:29;;;;;;;6.80;2.80;;;;;;;3.77;67.61;98671.58;212780;1321;138887;-61
2021/12/19 23:09:33;;;;;;;7.10;2.90;;;;;;;3.67;67.42;98673.92;212728;1325;138295;-60
2021/12/19 23:14:40;;;;;;;5.00;2.20;;;;;;;3.56;67.41;98682.07;213063;1324;139492;-60
2021/12/19 23:19:43;;;;;;;7.30;2.40;;;;;;;3.50;67.36;98684.23;212678;1321;137831;-60
2021/12/19 23:24:47;;;;;;;5.30;2.20;;;;;;;3.47;67.36;98682.92;212611;1326;139422;-59
2021/12/19 23:29:50;;;;;;;6.00;2.50;;;;;;;3.49;67.60;98691.45;213066;1323;138637;-60
2021/12/19 23:34:53;;;;;;;6.20;2.40;;;;;;;3.49;67.51;98692.15;212588;1328;138268;-57
2021/12/19 23:40:13;;;;;;;5.90;2.40;;;;;;;3.48;67.27;98690.25;212478;1322;140834;-57
2021/12/19 23:45:19;;;;;;;5.50;2.50;;;;;;;3.45;67.29;98689.15;212829;1321;138677;-59
2021/12/19 23:50:24;;;;;;;6.10;2.10;;;;;;;3.44;67.34;98699.19;212361;1322;138142;-57
2021/12/19 23:55:29;;;;;;;6.40;2.30;;;;;;;3.42;67.31;98696.98;212849;1322;138719;-58
